Time;durP1;ratioP1;P1;durP2;ratioP2;P2;SDS_P1;SDS_P2;PMS_P1;PMS_P2;Temp;Humidity;BMP_temperature;BMP_pressure;BME280_temperature;BME280_humidity;BME280_pressure;Samples;Min_cycle;Max_cycle;Signal;HPM_P1;HPM_P2
2023/05/24 00:00:56;;;;;;;7.50;3.00;;;12.00;99.90;;;;;;5024929;28;20286;-60
2023/05/24 00:03:21;;;;;;;5.47;2.23;;;12.00;99.90;;;;;;5029513;28;20190;-59
2023/05/24 00:05:47;;;;;;;3.70;2.00;;;12.20;99.90;;;;;;5031833;28;20651;-59
2023/05/24 00:08:14;;;;;;;3.00;2.00;;;12.10;99.90;;;;;;5030366;28;20224;-59
2023/05/24 00:10:40;;;;;;;9.53;1.60;;;12.00;99.90;;;;;;5012326;28;20284;-59
2023/05/24 00:13:06;;;;;;;5.47;2.03;;;12.00;99.90;;;;;;5025261;28;20421;-59
2023/05/24 00:15:32;;;;;;;5.67;2.27;;;12.00;99.90;;;;;;5012197;28;20926;-59
2023/05/24 00:17:57;;;;;;;3.00;1.63;;;12.10;99.90;;;;;;5014420;28;20546;-59
2023/05/24 00:20:23;;;;;;;9.70;2.43;;;11.90;99.90;;;;;;5031878;28;20627;-59
2023/05/24 00:22:49;;;;;;;14.80;2.50;;;11.80;99.90;;;;;;5024229;28;20193;-60
2023/05/24 00:25:15;;;;;;;2.63;1.43;;;11.80;99.90;;;;;;5012286;28;20549;-59
2023/05/24 00:27:40;;;;;;;5.13;1.93;;;11.80;99.90;;;;;;5024551;28;20627;-59
2023/05/24 00:30:06;;;;;;;3.13;2.07;;;11.80;99.90;;;;;;5023776;28;20506;-59
2023/05/24 00:32:32;;;;;;;3.83;2.10;;;11.80;99.90;;;;;;5011576;28;20195;-59
2023/05/24 00:34:58;;;;;;;4.20;1.83;;;11.70;99.90;;;;;;5011904;28;20477;-59
2023/05/24 00:37:23;;;;;;;8.30;1.83;;;11.80;99.90;;;;;;5011991;28;20187;-59
2023/05/24 00:39:49;;;;;;;5.40;2.17;;;11.80;99.90;;;;;;5020121;28;20221;-60
2023/05/24 00:42:15;;;;;;;5.50;2.37;;;11.90;99.90;;;;;;5029804;28;20201;-59
2023/05/24 00:44:40;;;;;;;4.33;2.33;;;11.90;99.90;;;;;;5011994;28;20183;-58
2023/05/24 00:47:07;;;;;;;4.00;1.90;;;12.00;99.90;;;;;;5011829;28;20865;-59
2023/05/24 00:49:33;;;;;;;2.50;1.50;;;12.10;99.90;;;;;;5011161;28;20187;-59
2023/05/24 00:51:59;;;;;;;4.10;2.13;;;12.00;99.90;;;;;;5024008;28;20429;-59
2023/05/24 00:54:25;;;;;;;4.03;1.87;;;11.90;99.90;;;;;;5029129;28;20552;-59
2023/05/24 00:56:51;;;;;;;3.63;1.80;;;11.90;99.90;;;;;;5031353;28;20432;-59
2023/05/24 00:59:17;;;;;;;8.83;2.03;;;12.00;99.90;;;;;;5030855;28;20468;-59
2023/05/24 01:01:45;;;;;;;3.37;1.83;;;11.90;99.90;;;;;;5019316;28;20421;-59
2023/05/24 01:04:12;;;;;;;5.00;1.80;;;11.90;99.90;;;;;;5030447;28;20185;-59
2023/05/24 01:06:58;;;;;;;4.67;2.07;;;12.00;99.90;;;;;;5030057;28;20429;-59
2023/05/24 01:09:42;;;;;;;3.93;2.03;;;11.80;99.90;;;;;;5031087;28;20452;-59
2023/05/24 01:12:14;;;;;;;2.90;2.00;;;11.90;99.90;;;;;;5031014;28;20550;-59
2023/05/24 01:15:16;;;;;;;8.80;2.43;;;11.90;99.90;;;;;;5016432;28;20418;-59
2023/05/24 01:18:00;;;;;;;4.47;1.93;;;11.80;99.90;;;;;;5023984;28;20412;-59
2023/05/24 01:20:31;;;;;;;5.40;2.77;;;11.80;99.90;;;;;;5030506;28;20417;-59
2023/05/24 01:23:30;;;;;;;4.07;2.03;;;11.80;99.90;;;;;;5027804;28;20487;-59
2023/05/24 01:26:32;;;;;;;3.97;1.77;;;11.80;99.90;;;;;;5012421;28;20464;-59
2023/05/24 01:29:01;;;;;;;2.00;1.40;;;11.80;99.90;;;;;;5023910;28;20413;-59
2023/05/24 01:31:27;;;;;;;3.27;1.63;;;11.70;99.90;;;;;;5030137;28;20433;-59
2023/05/24 01:33:52;;;;;;;4.17;2.67;;;11.80;99.90;;;;;;5017311;28;20426;-59
2023/05/24 01:36:18;;;;;;;4.90;1.93;;;11.80;99.90;;;;;;5017253;28;20189;-58
2023/05/24 01:38:45;;;;;;;5.23;2.50;;;11.80;99.90;;;;;;5020727;28;20228;-58
2023/05/24 01:41:33;;;;;;;5.70;2.20;;;11.70;99.90;;;;;;5011041;28;20186;-59
2023/05/24 01:44:12;;;;;;;5.20;2.20;;;11.80;99.90;;;;;;5010347;28;20476;-59
2023/05/24 01:46:38;;;;;;;5.63;1.47;;;11.70;99.90;;;;;;5011158;28;20894;-59
2023/05/24 01:49:12;;;;;;;5.87;2.40;;;11.50;99.90;;;;;;5028295;28;20467;-59
2023/05/24 01:51:46;;;;;;;11.47;2.77;;;11.70;99.90;;;;;;5018102;28;20659;-59
2023/05/24 01:54:13;;;;;;;5.37;2.30;;;11.70;99.90;;;;;;5023777;28;20560;-59
2023/05/24 01:56:40;;;;;;;3.80;1.93;;;11.70;99.90;;;;;;5014826;28;20421;-59
2023/05/24 01:59:06;;;;;;;3.70;1.63;;;11.70;99.90;;;;;;5030640;28;20492;-59
2023/05/24 02:01:33;;;;;;;8.93;1.70;;;11.70;99.90;;;;;;5019092;28;20425;-59
2023/05/24 02:03:59;;;;;;;3.87;1.93;;;11.70;99.90;;;;;;5029262;28;20418;-58
2023/05/24 02:06:24;;;;;;;7.30;2.50;;;11.70;99.90;;;;;;5022311;28;20813;-59
2023/05/24 02:08:52;;;;;;;4.37;2.27;;;11.60;99.90;;;;;;5021881;28;20190;-60
2023/05/24 02:11:17;;;;;;;8.90;1.80;;;11.50;99.90;;;;;;5037161;28;20377;-59
2023/05/24 02:13:43;;;;;;;5.70;1.57;;;11.50;99.90;;;;;;5029938;28;20516;-59
2023/05/24 02:16:09;;;;;;;4.27;2.30;;;11.50;99.90;;;;;;5017291;28;20187;-59
2023/05/24 02:18:35;;;;;;;4.23;1.70;;;11.30;99.90;;;;;;5024572;28;20267;-59
2023/05/24 02:21:01;;;;;;;6.90;2.10;;;11.30;99.90;;;;;;5035876;28;20988;-59
2023/05/24 02:23:27;;;;;;;3.07;1.67;;;11.30;99.90;;;;;;5024500;28;20212;-59
2023/05/24 02:25:53;;;;;;;2.53;1.30;;;11.40;99.90;;;;;;5023417;28;20875;-59
2023/05/24 02:28:19;;;;;;;9.77;3.30;;;11.20;99.90;;;;;;5036628;28;20915;-59
2023/05/24 02:30:45;;;;;;;3.27;1.77;;;11.20;99.90;;;;;;5036213;28;20424;-59
2023/05/24 02:33:11;;;;;;;7.23;1.63;;;11.10;99.90;;;;;;5023865;28;20261;-59
2023/05/24 02:35:37;;;;;;;3.17;1.80;;;11.10;99.90;;;;;;5022415;28;20496;-58
2023/05/24 02:38:05;;;;;;;2.90;1.90;;;11.20;99.90;;;;;;5017644;28;20262;-59
2023/05/24 02:40:31;;;;;;;3.53;2.20;;;11.20;99.90;;;;;;5022524;28;20175;-59
2023/05/24 02:42:56;;;;;;;9.40;2.40;;;11.10;99.90;;;;;;5023920;28;20482;-59
2023/05/24 02:45:22;;;;;;;12.60;2.10;;;11.10;99.90;;;;;;5022905;28;20237;-59
2023/05/24 02:47:48;;;;;;;7.27;2.53;;;11.20;99.90;;;;;;5023720;28;20201;-59
2023/05/24 02:50:13;;;;;;;6.43;2.77;;;11.10;99.90;;;;;;5021819;28;20183;-59
2023/05/24 02:52:39;;;;;;;13.27;2.17;;;11.10;99.90;;;;;;5016997;28;20187;-59
2023/05/24 02:55:05;;;;;;;7.27;2.33;;;11.20;99.90;;;;;;5016501;28;20193;-59
2023/05/24 02:57:33;;;;;;;4.20;2.40;;;11.20;99.90;;;;;;5020445;28;20179;-59
2023/05/24 02:59:58;;;;;;;9.80;2.27;;;11.20;99.90;;;;;;5016707;28;20552;-59
2023/05/24 03:02:27;;;;;;;5.33;1.70;;;11.20;99.90;;;;;;5035301;28;20536;-59
2023/05/24 03:04:52;;;;;;;4.80;2.00;;;11.20;99.90;;;;;;5027654;28;20174;-59
2023/05/24 03:07:18;;;;;;;5.07;2.03;;;11.10;99.90;;;;;;5027503;28;20539;-59
2023/05/24 03:09:44;;;;;;;5.10;2.43;;;11.10;99.90;;;;;;5017047;28;20190;-59
2023/05/24 03:12:09;;;;;;;3.17;1.73;;;10.90;99.90;;;;;;5035630;28;20277;-59
2023/05/24 03:14:35;;;;;;;5.53;1.80;;;10.80;99.90;;;;;;5032103;28;20191;-59
2023/05/24 03:17:01;;;;;;;3.73;2.47;;;10.90;99.90;;;;;;5025969;28;20193;-59
2023/05/24 03:19:26;;;;;;;5.60;1.70;;;11.00;99.90;;;;;;5026423;28;20199;-59
2023/05/24 03:21:52;;;;;;;7.43;2.67;;;10.90;99.90;;;;;;5025257;28;20198;-59
2023/05/24 03:24:18;;;;;;;8.10;2.63;;;11.00;99.90;;;;;;5027437;28;20186;-59
2023/05/24 03:26:44;;;;;;;6.53;2.70;;;10.90;99.90;;;;;;5029696;28;20170;-59
2023/05/24 03:29:09;;;;;;;6.60;2.20;;;10.90;99.90;;;;;;5029332;28;20281;-59
2023/05/24 03:31:35;;;;;;;12.87;3.37;;;10.80;99.90;;;;;;5029428;28;20174;-58
2023/05/24 03:34:01;;;;;;;4.77;2.50;;;10.80;99.90;;;;;;5029476;28;20256;-59
2023/05/24 03:36:27;;;;;;;2.00;1.50;;;10.70;99.90;;;;;;5024407;28;20243;-59
2023/05/24 03:38:56;;;;;;;5.80;2.40;;;10.60;99.90;;;;;;5018669;28;20640;-59
2023/05/24 03:41:22;;;;;;;6.20;1.83;;;10.60;99.90;;;;;;5013239;28;20909;-59
2023/05/24 03:43:48;;;;;;;9.37;3.33;;;10.70;99.90;;;;;;5025665;28;20425;-58
2023/05/24 03:46:13;;;;;;;4.50;2.30;;;10.70;99.90;;;;;;5015354;28;20679;-59
2023/05/24 03:48:39;;;;;;;13.10;2.37;;;10.70;99.90;;;;;;5032278;28;20206;-59
2023/05/24 03:51:04;;;;;;;9.23;3.13;;;10.60;99.90;;;;;;5024398;28;20183;-59
2023/05/24 03:53:31;;;;;;;7.60;3.00;;;10.70;99.90;;;;;;5012337;28;20175;-59
2023/05/24 03:55:56;;;;;;;8.90;2.60;;;10.80;99.90;;;;;;5012546;28;20175;-59
2023/05/24 03:58:22;;;;;;;4.67;2.90;;;10.70;99.90;;;;;;5029078;28;20917;-59
2023/05/24 04:00:47;;;;;;;4.77;1.60;;;10.70;99.90;;;;;;5020300;28;20186;-59
2023/05/24 04:03:13;;;;;;;5.90;1.77;;;10.60;99.90;;;;;;5031545;28;20175;-59
2023/05/24 04:05:39;;;;;;;8.10;2.77;;;10.70;99.90;;;;;;5031499;28;20234;-59
2023/05/24 04:08:05;;;;;;;7.80;2.33;;;10.80;99.90;;;;;;5016481;28;20182;-59
2023/05/24 04:10:30;;;;;;;3.37;1.90;;;10.80;99.90;;;;;;5023733;28;20524;-60
2023/05/24 04:12:56;;;;;;;12.80;2.33;;;10.70;99.90;;;;;;5012950;28;20426;-59
2023/05/24 04:15:22;;;;;;;4.67;2.00;;;10.60;99.90;;;;;;5024500;28;20183;-59
2023/05/24 04:17:53;;;;;;;9.67;3.03;;;10.70;99.90;;;;;;5025849;28;20205;-59
2023/05/24 04:20:20;;;;;;;5.27;2.30;;;10.70;99.90;;;;;;5026165;28;20724;-59
2023/05/24 04:22:45;;;;;;;4.30;1.60;;;10.60;99.90;;;;;;5020105;28;20937;-59
2023/05/24 04:25:11;;;;;;;3.23;1.90;;;10.50;99.90;;;;;;5030519;28;20533;-59
2023/05/24 04:27:36;;;;;;;2.93;1.60;;;10.50;99.90;;;;;;5031583;28;20202;-59
2023/05/24 04:30:02;;;;;;;5.97;1.90;;;10.60;99.90;;;;;;5031401;28;20282;-59
2023/05/24 04:32:29;;;;;;;3.90;2.17;;;10.70;99.90;;;;;;5017262;28;20191;-58
2023/05/24 04:34:55;;;;;;;2.87;2.03;;;10.80;99.90;;;;;;5011369;28;20652;-59
2023/05/24 04:37:21;;;;;;;6.83;3.43;;;10.90;99.90;;;;;;5025139;28;20431;-59
2023/05/24 04:39:46;;;;;;;5.13;2.00;;;10.90;99.90;;;;;;5011760;28;20426;-58
2023/05/24 04:42:12;;;;;;;2.60;1.23;;;10.80;99.90;;;;;;5011077;28;20183;-59
2023/05/24 04:44:41;;;;;;;6.47;2.73;;;11.00;99.90;;;;;;5031641;28;20186;-59
2023/05/24 04:47:07;;;;;;;8.93;3.20;;;10.90;99.90;;;;;;5017255;28;20205;-59
2023/05/24 04:49:33;;;;;;;4.40;2.40;;;10.90;99.90;;;;;;5028183;28;20498;-59
2023/05/24 04:51:58;;;;;;;3.23;1.90;;;10.80;99.90;;;;;;5017670;28;20440;-59
2023/05/24 04:54:24;;;;;;;6.40;2.30;;;10.90;99.90;;;;;;5023220;28;20183;-59
2023/05/24 04:56:50;;;;;;;4.70;2.17;;;10.80;99.90;;;;;;5016857;28;20264;-59
2023/05/24 04:59:16;;;;;;;9.97;1.90;;;10.80;99.90;;;;;;5017838;28;20261;-59
2023/05/24 05:01:41;;;;;;;10.40;2.50;;;10.70;99.90;;;;;;5020951;28;20182;-59
2023/05/24 05:04:07;;;;;;;7.47;2.40;;;10.70;99.90;;;;;;5023644;28;20184;-58
2023/05/24 05:06:37;;;;;;;4.47;2.33;;;10.70;99.90;;;;;;5029918;28;20631;-59
2023/05/24 05:09:09;;;;;;;15.00;2.07;;;10.70;99.90;;;;;;5018019;28;20248;-59
2023/05/24 05:11:35;;;;;;;6.73;2.90;;;10.70;99.90;;;;;;5029460;28;20902;-59
2023/05/24 05:14:01;;;;;;;8.43;2.10;;;10.60;99.90;;;;;;5017307;28;20783;-59
2023/05/24 05:16:26;;;;;;;11.90;2.80;;;10.70;99.90;;;;;;5018015;28;20441;-59
2023/05/24 05:18:52;;;;;;;4.73;2.33;;;10.60;99.90;;;;;;5030740;28;20481;-59
2023/05/24 05:21:18;;;;;;;8.00;1.93;;;10.60;99.90;;;;;;5030557;28;20194;-60
2023/05/24 05:23:44;;;;;;;6.30;2.93;;;10.60;99.90;;;;;;5030011;28;20631;-59
2023/05/24 05:26:10;;;;;;;4.70;2.03;;;10.70;99.90;;;;;;5014751;28;20214;-59
2023/05/24 05:28:36;;;;;;;4.20;2.60;;;10.90;99.90;;;;;;5021196;28;20955;-59
2023/05/24 05:31:02;;;;;;;8.20;2.40;;;10.90;99.90;;;;;;5018096;28;20175;-59
2023/05/24 05:33:29;;;;;;;2.73;1.83;;;10.90;99.90;;;;;;5015882;28;20191;-59
2023/05/24 05:35:55;;;;;;;9.53;2.17;;;10.70;99.90;;;;;;5012190;28;20179;-59
2023/05/24 05:38:20;;;;;;;5.80;2.40;;;10.70;99.90;;;;;;5020159;28;20431;-59
2023/05/24 05:40:46;;;;;;;7.43;2.50;;;10.70;99.90;;;;;;5012770;28;20636;-59
2023/05/24 05:43:11;;;;;;;4.50;1.87;;;10.70;99.90;;;;;;5029909;28;20511;-59
2023/05/24 05:45:37;;;;;;;12.57;2.70;;;10.80;99.90;;;;;;5013977;28;20195;-59
2023/05/24 05:48:02;;;;;;;5.77;2.97;;;10.70;99.90;;;;;;5010843;28;20485;-59
2023/05/24 05:50:29;;;;;;;4.67;1.80;;;10.70;99.90;;;;;;5025322;28;20258;-58
2023/05/24 05:52:56;;;;;;;9.10;2.20;;;10.60;99.90;;;;;;5029837;28;20603;-59
2023/05/24 05:55:22;;;;;;;8.23;2.70;;;10.80;99.90;;;;;;5013826;28;20186;-58
2023/05/24 05:57:48;;;;;;;4.47;1.90;;;10.90;99.90;;;;;;5014501;28;20430;-59
2023/05/24 06:00:14;;;;;;;16.83;3.43;;;10.80;99.90;;;;;;5010930;28;20528;-59
2023/05/24 06:02:39;;;;;;;10.67;2.90;;;10.90;99.90;;;;;;5021693;28;20182;-59
2023/05/24 06:05:05;;;;;;;7.00;2.70;;;10.90;99.90;;;;;;5029675;28;20274;-59
2023/05/24 06:07:31;;;;;;;7.77;2.73;;;11.00;99.90;;;;;;5025269;28;20237;-59
2023/05/24 06:09:57;;;;;;;9.43;2.70;;;11.00;99.90;;;;;;5026593;28;20235;-59
2023/05/24 06:12:22;;;;;;;8.13;3.00;;;11.10;99.90;;;;;;5009135;28;20187;-59
2023/05/24 06:14:49;;;;;;;5.23;1.73;;;11.30;99.90;;;;;;5013406;28;20182;-59
2023/05/24 06:17:15;;;;;;;5.53;2.07;;;11.40;99.90;;;;;;5018646;28;20183;-58
2023/05/24 06:19:42;;;;;;;10.50;2.70;;;11.20;99.90;;;;;;5029524;28;20479;-59
2023/05/24 06:22:08;;;;;;;4.70;2.27;;;11.00;99.90;;;;;;5029428;28;20886;-59
2023/05/24 06:24:34;;;;;;;5.20;2.43;;;11.10;99.90;;;;;;5013236;28;20488;-59
2023/05/24 06:27:00;;;;;;;8.00;2.67;;;11.00;99.90;;;;;;5016790;28;20838;-59
2023/05/24 06:29:26;;;;;;;6.70;2.00;;;11.10;99.90;;;;;;5026277;28;20207;-59
2023/05/24 06:31:51;;;;;;;4.17;2.00;;;11.40;99.90;;;;;;5009835;28;20467;-59
2023/05/24 06:34:21;;;;;;;13.00;2.80;;;11.50;99.90;;;;;;5023013;28;20190;-59
2023/05/24 06:36:47;;;;;;;4.67;2.43;;;11.40;99.90;;;;;;5020299;28;20217;-59
2023/05/24 06:39:13;;;;;;;4.63;2.63;;;11.40;99.90;;;;;;5015988;28;20503;-59
2023/05/24 06:41:39;;;;;;;4.23;2.30;;;11.40;99.90;;;;;;5029073;28;20464;-59
2023/05/24 06:44:05;;;;;;;4.80;2.00;;;11.50;99.90;;;;;;5026150;28;20441;-59
2023/05/24 06:46:31;;;;;;;6.40;2.97;;;11.30;99.90;;;;;;5010868;28;20572;-59
2023/05/24 06:48:57;;;;;;;6.47;2.47;;;11.50;99.90;;;;;;5022715;28;20613;-59
2023/05/24 06:51:23;;;;;;;3.53;2.40;;;11.80;99.90;;;;;;5027887;28;20433;-59
2023/05/24 06:53:49;;;;;;;6.53;2.43;;;11.50;99.90;;;;;;5028694;28;20627;-59
2023/05/24 06:56:14;;;;;;;9.93;2.90;;;11.80;99.90;;;;;;5023144;28;20194;-59
2023/05/24 06:58:40;;;;;;;2.37;1.60;;;12.00;99.90;;;;;;5015230;28;20430;-59
2023/05/24 07:01:07;;;;;;;5.40;2.23;;;12.00;99.90;;;;;;5021833;28;20183;-59
2023/05/24 07:03:34;;;;;;;6.00;1.80;;;12.30;99.90;;;;;;5028273;28;20464;-59
2023/05/24 07:05:59;;;;;;;5.20;1.83;;;12.60;99.90;;;;;;5027630;28;20428;-59
2023/05/24 07:08:25;;;;;;;3.30;2.03;;;12.40;99.90;;;;;;5027537;28;20422;-58
2023/05/24 07:10:52;;;;;;;5.53;2.30;;;12.50;99.90;;;;;;5011480;28;20232;-59
2023/05/24 07:13:18;;;;;;;2.50;1.53;;;12.60;99.90;;;;;;5022487;28;20290;-59
2023/05/24 07:15:44;;;;;;;5.20;1.93;;;12.20;99.90;;;;;;5031669;28;20921;-59
2023/05/24 07:18:10;;;;;;;15.20;2.50;;;12.20;99.90;;;;;;5018540;28;20220;-59
2023/05/24 07:20:35;;;;;;;4.67;1.90;;;11.80;99.90;;;;;;5031131;28;20413;-59
2023/05/24 07:23:02;;;;;;;8.70;3.00;;;11.80;99.90;;;;;;5031385;28;20182;-59
2023/05/24 07:25:28;;;;;;;2.70;1.43;;;11.90;99.90;;;;;;5021447;28;20214;-59
2023/05/24 07:27:53;;;;;;;4.40;2.10;;;11.80;99.90;;;;;;5028622;28;20967;-58
2023/05/24 07:30:19;;;;;;;8.17;2.53;;;11.40;99.90;;;;;;5022231;28;20704;-58
2023/05/24 07:32:45;;;;;;;7.63;2.40;;;11.70;99.90;;;;;;5024038;28;20211;-59
2023/05/24 07:35:15;;;;;;;6.53;1.97;;;11.40;99.90;;;;;;5020834;28;20192;-58
2023/05/24 07:37:41;;;;;;;9.47;2.40;;;11.60;99.90;;;;;;5027056;28;20187;-59
2023/05/24 07:40:10;;;;;;;5.53;2.80;;;11.50;99.90;;;;;;5011199;28;21055;-59
2023/05/24 07:42:36;;;;;;;7.53;2.03;;;11.50;99.90;;;;;;5015746;28;20460;-59
2023/05/24 07:45:02;;;;;;;14.53;2.73;;;11.50;99.90;;;;;;5019669;28;20430;-59
2023/05/24 07:47:28;;;;;;;5.27;2.67;;;11.80;99.90;;;;;;5028042;28;20441;-58
2023/05/24 07:49:53;;;;;;;5.03;1.93;;;11.80;99.90;;;;;;5030250;28;20212;-59
2023/05/24 07:52:19;;;;;;;7.67;1.80;;;11.90;99.90;;;;;;5029618;28;20179;-59
2023/05/24 07:54:45;;;;;;;4.23;2.10;;;11.80;99.90;;;;;;5019510;28;20183;-58
2023/05/24 07:57:11;;;;;;;2.90;1.90;;;11.80;99.90;;;;;;5019045;28;20204;-59
2023/05/24 07:59:37;;;;;;;4.70;2.53;;;11.60;99.90;;;;;;5029940;28;20433;-59
2023/05/24 08:02:04;;;;;;;5.37;2.47;;;11.40;99.90;;;;;;5029299;28;20425;-59
2023/05/24 08:04:34;;;;;;;4.50;2.17;;;11.40;99.90;;;;;;5025567;28;20186;-59
2023/05/24 08:07:01;;;;;;;6.40;2.60;;;11.40;99.90;;;;;;5017689;28;20542;-59
2023/05/24 08:09:28;;;;;;;4.70;2.10;;;11.30;99.90;;;;;;5032021;28;20583;-59
2023/05/24 08:11:55;;;;;;;11.63;2.40;;;11.40;99.90;;;;;;5031449;28;20421;-58
2023/05/24 08:14:21;;;;;;;6.80;2.67;;;11.50;99.90;;;;;;5020148;28;20418;-59
2023/05/24 08:16:47;;;;;;;11.20;2.20;;;11.50;99.90;;;;;;5030535;28;20548;-58
2023/05/24 08:19:13;;;;;;;9.50;3.50;;;11.80;99.90;;;;;;5031501;28;20520;-58
2023/05/24 08:21:40;;;;;;;9.40;2.40;;;12.00;99.90;;;;;;5026279;28;20217;-59
2023/05/24 08:24:06;;;;;;;6.97;2.60;;;12.10;99.90;;;;;;5025369;28;20182;-59
2023/05/24 08:26:31;;;;;;;3.93;2.37;;;12.10;99.90;;;;;;5016276;28;20428;-59
2023/05/24 08:28:57;;;;;;;8.23;2.50;;;12.00;99.90;;;;;;5031907;28;20221;-59
2023/05/24 08:31:23;;;;;;;4.70;2.20;;;12.20;99.90;;;;;;5017904;28;20182;-59
2023/05/24 08:33:49;;;;;;;5.27;2.00;;;12.50;99.90;;;;;;5019949;28;20194;-59
2023/05/24 08:36:16;;;;;;;5.10;2.47;;;12.60;99.90;;;;;;5024650;28;20182;-59
2023/05/24 08:38:42;;;;;;;7.70;3.50;;;12.40;99.90;;;;;;5012039;28;20425;-59
2023/05/24 08:41:10;;;;;;;4.23;2.23;;;12.10;99.90;;;;;;5016701;28;20971;-58
2023/05/24 08:43:37;;;;;;;11.73;3.10;;;12.40;99.90;;;;;;5018610;28;20588;-59
2023/05/24 08:46:04;;;;;;;4.23;2.50;;;12.60;99.90;;;;;;5016916;28;20877;-59
2023/05/24 08:48:30;;;;;;;6.50;2.20;;;12.90;99.90;;;;;;5018573;28;20488;-59
2023/05/24 08:50:57;;;;;;;3.60;1.50;;;13.30;99.90;;;;;;5030111;28;20779;-59
2023/05/24 08:53:23;;;;;;;2.90;1.70;;;13.30;99.90;;;;;;5030524;28;20456;-58
2023/05/24 08:55:53;;;;;;;8.73;2.70;;;13.70;99.70;;;;;;5024608;28;20434;-59
2023/05/24 08:58:19;;;;;;;7.27;2.30;;;13.70;99.90;;;;;;5028747;28;20451;-59
2023/05/24 09:00:45;;;;;;;9.77;2.53;;;13.60;99.90;;;;;;5017596;28;20526;-59
2023/05/24 09:03:11;;;;;;;3.50;2.23;;;13.40;99.90;;;;;;5030424;28;20414;-59
2023/05/24 09:05:40;;;;;;;17.50;3.23;;;13.40;99.90;;;;;;5024170;28;20417;-59
2023/05/24 09:08:05;;;;;;;9.60;3.80;;;13.30;99.90;;;;;;5016888;28;20739;-59
2023/05/24 09:10:32;;;;;;;7.33;2.80;;;13.00;99.90;;;;;;5030948;28;20495;-59
2023/05/24 09:13:01;;;;;;;8.80;2.60;;;12.80;99.90;;;;;;5029468;28;20201;-59
2023/05/24 09:15:27;;;;;;;6.70;3.17;;;13.00;99.90;;;;;;5018190;28;20483;-59
2023/05/24 09:17:52;;;;;;;10.03;2.97;;;12.80;99.90;;;;;;5018668;28;20445;-59
2023/05/24 09:20:19;;;;;;;7.00;2.60;;;12.90;99.90;;;;;;5030500;28;20589;-59
2023/05/24 09:22:49;;;;;;;4.80;2.57;;;13.00;99.80;;;;;;5026563;28;20190;-59
2023/05/24 09:25:17;;;;;;;5.80;2.50;;;13.10;99.90;;;;;;5022702;28;20433;-59
2023/05/24 09:27:51;;;;;;;4.03;2.50;;;13.00;99.90;;;;;;5027649;28;20474;-59
2023/05/24 09:30:17;;;;;;;16.50;2.97;;;13.30;98.30;;;;;;5020557;28;20473;-59
2023/05/24 09:32:57;;;;;;;7.47;2.53;;;12.90;99.90;;;;;;5026982;28;20421;-59
2023/05/24 09:35:25;;;;;;;9.13;3.40;;;13.10;99.50;;;;;;5023921;28;20421;-59
2023/05/24 09:37:56;;;;;;;6.23;2.57;;;13.60;98.50;;;;;;5026936;28;20535;-59
2023/05/24 09:40:22;;;;;;;6.53;1.77;;;13.20;99.00;;;;;;5021891;28;20525;-59
2023/05/24 09:42:51;;;;;;;6.93;3.00;;;13.40;98.50;;;;;;5027163;28;20486;-59
2023/05/24 09:45:17;;;;;;;3.63;1.83;;;13.30;99.00;;;;;;5029339;28;20579;-59
2023/05/24 09:47:45;;;;;;;24.50;3.27;;;13.60;98.50;;;;;;5023409;28;20609;-59
2023/05/24 09:50:16;;;;;;;11.70;2.50;;;13.20;98.00;;;;;;5010907;28;20206;-59
2023/05/24 09:52:42;;;;;;;20.73;2.87;;;13.30;98.50;;;;;;5022239;28;20466;-58
2023/05/24 09:55:16;;;;;;;5.03;2.40;;;13.40;97.90;;;;;;5025021;28;20859;-59
2023/05/24 09:57:51;;;;;;;4.07;1.83;;;13.10;98.80;;;;;;5021832;28;20473;-59
2023/05/24 10:00:23;;;;;;;4.17;1.60;;;13.30;98.60;;;;;;5023587;28;20429;-59
2023/05/24 10:03:10;;;;;;;6.40;2.30;;;13.30;98.40;;;;;;5023002;28;20417;-59
2023/05/24 10:05:37;;;;;;;4.83;2.33;;;13.30;98.40;;;;;;5022959;28;20417;-59
2023/05/24 10:08:08;;;;;;;2.90;2.03;;;13.20;98.20;;;;;;5028926;28;20432;-59
2023/05/24 10:10:33;;;;;;;8.60;1.97;;;12.80;98.10;;;;;;5010105;28;21231;-59
2023/05/24 10:13:00;;;;;;;3.43;2.20;;;12.80;98.80;;;;;;5009419;28;20479;-59
2023/05/24 10:15:26;;;;;;;13.20;3.73;;;13.20;98.40;;;;;;5012874;28;20179;-58
2023/05/24 10:17:56;;;;;;;7.57;2.70;;;13.40;98.30;;;;;;5011770;28;20437;-59
2023/05/24 10:20:22;;;;;;;11.30;3.63;;;13.40;98.40;;;;;;5021922;28;20480;-58
2023/05/24 10:22:52;;;;;;;5.60;2.57;;;13.20;99.10;;;;;;5029680;28;20834;-58
2023/05/24 10:25:26;;;;;;;4.53;2.23;;;13.20;99.30;;;;;;5024592;28;20509;-59
2023/05/24 10:28:00;;;;;;;6.00;2.87;;;13.40;99.10;;;;;;5024770;28;20429;-58
2023/05/24 10:31:07;;;;;;;3.60;2.20;;;13.60;98.70;;;;;;5017571;28;20952;-58
2023/05/24 10:33:36;;;;;;;6.13;2.73;;;13.40;98.70;;;;;;5027163;28;20536;-59
2023/05/24 10:36:05;;;;;;;4.43;2.40;;;13.40;98.40;;;;;;5030510;28;20791;-58
2023/05/24 10:38:32;;;;;;;4.33;2.10;;;12.50;99.60;;;;;;5033003;28;20440;-59
2023/05/24 10:40:58;;;;;;;4.80;2.40;;;12.60;99.40;;;;;;5031771;28;20443;-59
2023/05/24 10:43:24;;;;;;;7.60;2.50;;;12.60;99.10;;;;;;5032406;28;20413;-59
2023/05/24 10:45:50;;;;;;;15.03;2.47;;;12.60;99.50;;;;;;5031625;28;20182;-59
2023/05/24 10:48:16;;;;;;;7.93;2.10;;;12.80;99.60;;;;;;5022327;28;20755;-58
2023/05/24 10:50:42;;;;;;;6.73;2.30;;;12.60;99.10;;;;;;5030014;28;20280;-59
2023/05/24 10:53:14;;;;;;;4.50;2.50;;;12.60;98.60;;;;;;5022283;28;20441;-59
2023/05/24 10:55:59;;;;;;;9.87;2.87;;;12.40;99.20;;;;;;5013715;28;20421;-59
2023/05/24 10:58:50;;;;;;;4.53;2.30;;;12.10;99.90;;;;;;5017669;28;20430;-59
2023/05/24 11:01:25;;;;;;;5.70;2.70;;;12.40;99.50;;;;;;5024000;28;20881;-58
2023/05/24 11:03:51;;;;;;;6.57;2.13;;;12.20;99.20;;;;;;5032881;28;21068;-59
2023/05/24 11:06:17;;;;;;;9.20;2.73;;;12.00;99.30;;;;;;5021067;28;20433;-59
2023/05/24 11:08:43;;;;;;;13.60;4.17;;;12.10;99.70;;;;;;5012384;28;20206;-58
2023/05/24 11:11:10;;;;;;;6.73;2.33;;;12.30;99.60;;;;;;5013239;28;20286;-59
2023/05/24 11:13:36;;;;;;;5.30;2.10;;;12.40;99.70;;;;;;5012401;28;20241;-59
2023/05/24 11:16:02;;;;;;;9.30;3.20;;;12.20;98.20;;;;;;5029492;28;20433;-59
2023/05/24 11:18:28;;;;;;;10.43;3.23;;;12.10;98.70;;;;;;5020433;28;20915;-58
2023/05/24 11:20:55;;;;;;;5.93;2.83;;;12.20;98.50;;;;;;5032625;28;20189;-59
2023/05/24 11:23:20;;;;;;;7.53;2.27;;;12.00;98.80;;;;;;5019762;28;20186;-59
2023/05/24 11:25:47;;;;;;;5.20;2.77;;;12.10;99.30;;;;;;5020493;28;20422;-59
2023/05/24 11:28:13;;;;;;;4.27;2.10;;;12.30;99.10;;;;;;5027217;28;20241;-58
2023/05/24 11:30:39;;;;;;;7.60;1.90;;;12.40;99.70;;;;;;5019708;28;20544;-59
2023/05/24 11:33:19;;;;;;;31.53;2.53;;;12.80;98.50;;;;;;5012699;28;20500;-59
2023/05/24 11:35:45;;;;;;;6.50;1.73;;;12.80;98.00;;;;;;5011392;28;20520;-59
2023/05/24 11:38:13;;;;;;;17.70;2.80;;;12.80;98.30;;;;;;5012935;28;20521;-59
2023/05/24 11:40:45;;;;;;;6.30;2.67;;;12.70;97.50;;;;;;5026118;28;20428;-59
2023/05/24 11:43:15;;;;;;;5.77;2.23;;;12.70;97.60;;;;;;5012453;28;20487;-59
2023/05/24 11:45:42;;;;;;;7.40;2.40;;;12.80;97.90;;;;;;5028155;28;20433;-59
2023/05/24 11:48:10;;;;;;;4.97;1.80;;;13.30;97.50;;;;;;5023058;28;20445;-59
2023/05/24 11:50:40;;;;;;;7.37;2.63;;;13.20;96.80;;;;;;5012418;28;20773;-59
2023/05/24 11:53:09;;;;;;;6.67;2.30;;;13.50;96.80;;;;;;5022649;28;20421;-59
2023/05/24 11:55:35;;;;;;;8.70;2.67;;;13.20;96.70;;;;;;5014757;28;20422;-59
2023/05/24 11:58:05;;;;;;;5.20;2.80;;;13.10;97.50;;;;;;5027679;28;20492;-59
2023/05/24 12:00:30;;;;;;;6.83;2.53;;;13.60;97.30;;;;;;5031393;28;20260;-60
2023/05/24 12:03:00;;;;;;;3.67;2.23;;;13.90;96.30;;;;;;5031930;28;21116;-59
2023/05/24 12:05:30;;;;;;;3.83;1.90;;;13.60;96.20;;;;;;5020292;28;20183;-59
2023/05/24 12:08:04;;;;;;;7.00;2.20;;;13.60;96.30;;;;;;5012426;28;20472;-59
2023/05/24 12:10:31;;;;;;;5.47;2.80;;;13.80;95.40;;;;;;5019277;28;20567;-59
2023/05/24 12:12:57;;;;;;;5.03;2.60;;;13.70;95.70;;;;;;5018628;28;20422;-59
2023/05/24 12:15:23;;;;;;;3.80;2.50;;;14.20;96.00;;;;;;5016422;28;20428;-59
2023/05/24 12:17:49;;;;;;;4.37;2.23;;;14.10;95.30;;;;;;5026528;28;20512;-59
2023/05/24 12:20:15;;;;;;;3.40;1.87;;;14.50;93.70;;;;;;5031796;28;20187;-59
2023/05/24 12:22:51;;;;;;;5.50;2.40;;;15.20;93.10;;;;;;5031852;28;20186;-59
2023/05/24 12:25:20;;;;;;;9.20;2.73;;;15.50;92.20;;;;;;5012300;28;20195;-59
2023/05/24 12:27:52;;;;;;;3.47;1.33;;;15.40;92.00;;;;;;5027587;28;20433;-59
2023/05/24 12:30:25;;;;;;;5.97;2.80;;;15.70;91.40;;;;;;5022511;28;20462;-59
2023/05/24 12:32:54;;;;;;;3.80;2.43;;;14.80;92.20;;;;;;5025189;28;20426;-59
2023/05/24 12:35:20;;;;;;;6.93;2.17;;;15.10;92.60;;;;;;5011661;28;20497;-59
2023/05/24 12:37:47;;;;;;;7.80;2.73;;;15.10;92.00;;;;;;5025431;28;20428;-59
2023/05/24 12:40:20;;;;;;;7.70;2.60;;;16.00;92.20;;;;;;5011890;28;20840;-59
2023/05/24 12:42:56;;;;;;;7.70;2.63;;;15.60;90.50;;;;;;5011397;28;20509;-59
2023/05/24 12:45:24;;;;;;;9.40;2.00;;;15.80;90.80;;;;;;5025006;28;20440;-58
2023/05/24 12:47:51;;;;;;;3.23;2.13;;;16.10;89.10;;;;;;5025469;28;20473;-59